Songa Claudine — V7VL5 — position and weather

sailwx.info

Track history (hours):
 
Tides and Currents Weather Stations Pressure Air Temp Water Temp Dewpoint Dewpoint Depression Visibility Wind Speed Wind Dir Waves Ship Positions

Songa Claudine

Last reported at 2018-Jun-03 08:25 UTC. Time now 2018-Jun-18 22:41 UTC.
Position S 28°49' E 032°03'.
Warning: this ship's position is 15 days out of date.

Length 292 m; draft 10.3 m.

Type: Cargo ship. MMSI: 538004151.

Date/timePositionNaut miles runAvg speedWind from/ knotsBaromVisibWave heightAir tempDewpointWater temp
2018-Jun-03 08:25S 28°49' E 032°03'0 0.0
2018-Jun-03 07:49S 28°49' E 032°03'0 0.0
2018-Jun-03 03:02S 28°49' E 032°03'0 0.2
2018-Jun-03 03:00S 28°49' E 032°03'0 0.0
2018-Jun-02 21:03S 28°49' E 032°03'0 0.0
2018-Jun-02 20:53S 28°49' E 032°03'0 0.0
2018-Jun-02 20:09S 28°49' E 032°03'0 0.1
2018-Jun-02 20:00S 28°49' E 032°03'0 0.0
2018-Jun-02 19:29S 28°49' E 032°03'0 0.0
2018-Jun-02 18:25S 28°49' E 032°03'0 0.0
2018-Jun-02 17:50S 28°49' E 032°03'0 0.0
2018-Jun-01 20:01S 28°49' E 032°03'0 0.4
2018-Jun-01 20:00S 28°49' E 032°03'0 0.0
2018-Jun-01 19:31S 28°49' E 032°03'0 0.0
2018-Jun-01 19:00S 28°49' E 032°03'0 0.2
2018-Jun-01 18:30S 28°49' E 032°03'1 2.1
2018-Jun-01 17:59S 28°48' E 032°04'4 8.6
2018-Jun-01 17:31S 28°50' E 032°08'1 3.0
2018-Jun-01 17:01S 28°51' E 032°09'3 6.3
2018-Jun-01 16:30S 28°54' E 032°11'3 6.3
2018-Jun-01 16:00S 28°57' E 032°11'0 0.2
2018-Jun-01 15:30S 28°57' E 032°11'0 0.0
2018-Jun-01 14:51S 28°57' E 032°11'0 0.0
2018-Jun-01 14:30S 28°57' E 032°11'0 0.0
2018-Jun-01 14:00S 28°57' E 032°11'0 0.0
2018-Jun-01 13:30S 28°57' E 032°11'0 0.0
2018-Jun-01 13:00S 28°57' E 032°11'0 0.0
2018-Jun-01 12:27S 28°57' E 032°11'0 0.0
2018-Jun-01 12:00S 28°57' E 032°11'0 0.0
2018-Jun-01 11:27S 28°57' E 032°11'0 0.1
2018-Jun-01 11:00S 28°57' E 032°11'0 0.0
2018-Jun-01 10:30S 28°57' E 032°11'0 0.0
2018-Jun-01 09:27S 28°57' E 032°11'0 0.0
2018-Jun-01 09:00S 28°57' E 032°11'0 0.1
2018-Jun-01 08:30S 28°57' E 032°11'0 0.0
2018-Jun-01 07:57S 28°57' E 032°11'0 0.0
2018-Jun-01 07:30S 28°57' E 032°11'0 0.0
2018-Jun-01 06:57S 28°57' E 032°11'0 0.0
2018-Jun-01 06:21S 28°57' E 032°11'0 0.0
2018-Jun-01 06:00S 28°57' E 032°11'0 0.0
2018-Jun-01 05:27S 28°57' E 032°11'0 0.0
2018-Jun-01 05:00S 28°57' E 032°11'0 0.0
2018-Jun-01 04:30S 28°57' E 032°11'0 0.0
2018-Jun-01 03:57S 28°57' E 032°11'0 0.0
2018-Jun-01 03:27S 28°57' E 032°11'0 0.0
2018-Jun-01 02:09S 28°57' E 032°11'0 0.1
2018-Jun-01 02:00S 28°57' E 032°11'0 0.0
2018-Jun-01 01:21S 28°57' E 032°11'0 0.1
2018-Jun-01 01:00S 28°57' E 032°11'0 0.0
2018-May-31 23:45S 28°57' E 032°11'0 0.0
2018-May-31 23:27S 28°57' E 032°11'0 0.0
2018-May-31 22:27S 28°57' E 032°11'0 0.0
2018-May-31 21:57S 28°57' E 032°11'0 0.0
2018-May-31 21:27S 28°57' E 032°11'0 0.0
2018-May-31 20:57S 28°57' E 032°11'0 0.1
2018-May-31 20:30S 28°57' E 032°11'0 0.1
2018-May-31 19:24S 28°57' E 032°11'0 0.0
2018-May-31 18:51S 28°57' E 032°11'0 0.0
2018-May-31 18:30S 28°57' E 032°11'0 0.0
2018-May-31 18:00S 28°57' E 032°11'0 0.0
2018-May-31 17:30S 28°57' E 032°11'0 0.0
2018-May-31 17:00S 28°57' E 032°11'0 0.1
2018-May-31 16:30S 28°57' E 032°11'0 0.0
2018-May-31 14:15S 28°57' E 032°11'0 0.0
2018-May-31 13:51S 28°57' E 032°11'0 0.1
2018-May-31 13:27S 28°57' E 032°11'0 0.0
2018-May-31 12:57S 28°57' E 032°11'0 0.0
2018-May-31 12:27S 28°57' E 032°11'0 0.0
2018-May-31 12:00S 28°57' E 032°11'0 0.1
2018-May-31 11:27S 28°57' E 032°11'0 0.1
2018-May-31 10:48S 28°57' E 032°11'0 0.0
2018-May-31 10:30S 28°57' E 032°11'0 0.0
2018-May-31 10:00S 28°57' E 032°11'0 0.0
2018-May-31 09:09S 28°57' E 032°11'0 0.1
2018-May-31 08:51S 28°57' E 032°11'0 0.0
2018-May-31 08:24S 28°57' E 032°11'0 0.0
2018-May-31 07:12S 28°57' E 032°11'  
Track history (hours):
 
Tides and Currents Weather Stations Pressure Air Temp Water Temp Dewpoint Dewpoint Depression Visibility Wind Speed Wind Dir Waves Ship Positions

Songa Claudine

Last reported at 2018-Jun-03 08:25 UTC. Time now 2018-Jun-18 22:41 UTC.
Position S 28°49' E 032°03'.
Warning: this ship's position is 15 days out of date.

Length 292 m; draft 10.3 m.

Type: Cargo ship. MMSI: 538004151.

Date/timePositionNaut miles runAvg speedWind from/ knotsBaromVisibWave heightAir tempDewpointWater temp
2018-Jun-03 08:25S 28°49' E 032°03'0 0.0
2018-Jun-03 07:49S 28°49' E 032°03'0 0.0
2018-Jun-03 03:02S 28°49' E 032°03'0 0.2
2018-Jun-03 03:00S 28°49' E 032°03'0 0.0
2018-Jun-02 21:03S 28°49' E 032°03'0 0.0
2018-Jun-02 20:53S 28°49' E 032°03'0 0.0
2018-Jun-02 20:09S 28°49' E 032°03'0 0.1
2018-Jun-02 20:00S 28°49' E 032°03'0 0.0
2018-Jun-02 19:29S 28°49' E 032°03'0 0.0
2018-Jun-02 18:25S 28°49' E 032°03'0 0.0
2018-Jun-02 17:50S 28°49' E 032°03'0 0.0
2018-Jun-01 20:01S 28°49' E 032°03'0 0.4
2018-Jun-01 20:00S 28°49' E 032°03'0 0.0
2018-Jun-01 19:31S 28°49' E 032°03'0 0.0
2018-Jun-01 19:00S 28°49' E 032°03'0 0.2
2018-Jun-01 18:30S 28°49' E 032°03'1 2.1
2018-Jun-01 17:59S 28°48' E 032°04'4 8.6
2018-Jun-01 17:31S 28°50' E 032°08'1 3.0
2018-Jun-01 17:01S 28°51' E 032°09'3 6.3
2018-Jun-01 16:30S 28°54' E 032°11'3 6.3
2018-Jun-01 16:00S 28°57' E 032°11'0 0.2
2018-Jun-01 15:30S 28°57' E 032°11'0 0.0
2018-Jun-01 14:51S 28°57' E 032°11'0 0.0
2018-Jun-01 14:30S 28°57' E 032°11'0 0.0
2018-Jun-01 14:00S 28°57' E 032°11'0 0.0
2018-Jun-01 13:30S 28°57' E 032°11'0 0.0
2018-Jun-01 13:00S 28°57' E 032°11'0 0.0
2018-Jun-01 12:27S 28°57' E 032°11'0 0.0
2018-Jun-01 12:00S 28°57' E 032°11'0 0.0
2018-Jun-01 11:27S 28°57' E 032°11'0 0.1
2018-Jun-01 11:00S 28°57' E 032°11'0 0.0
2018-Jun-01 10:30S 28°57' E 032°11'0 0.0
2018-Jun-01 09:27S 28°57' E 032°11'0 0.0
2018-Jun-01 09:00S 28°57' E 032°11'0 0.1
2018-Jun-01 08:30S 28°57' E 032°11'0 0.0
2018-Jun-01 07:57S 28°57' E 032°11'0 0.0
2018-Jun-01 07:30S 28°57' E 032°11'0 0.0
2018-Jun-01 06:57S 28°57' E 032°11'0 0.0
2018-Jun-01 06:21S 28°57' E 032°11'0 0.0
2018-Jun-01 06:00S 28°57' E 032°11'0 0.0
2018-Jun-01 05:27S 28°57' E 032°11'0 0.0
2018-Jun-01 05:00S 28°57' E 032°11'0 0.0
2018-Jun-01 04:30S 28°57' E 032°11'0 0.0
2018-Jun-01 03:57S 28°57' E 032°11'0 0.0
2018-Jun-01 03:27S 28°57' E 032°11'0 0.0
2018-Jun-01 02:09S 28°57' E 032°11'0 0.1
2018-Jun-01 02:00S 28°57' E 032°11'0 0.0
2018-Jun-01 01:21S 28°57' E 032°11'0 0.1
2018-Jun-01 01:00S 28°57' E 032°11'0 0.0
2018-May-31 23:45S 28°57' E 032°11'0 0.0
2018-May-31 23:27S 28°57' E 032°11'0 0.0
2018-May-31 22:27S 28°57' E 032°11'0 0.0
2018-May-31 21:57S 28°57' E 032°11'0 0.0
2018-May-31 21:27S 28°57' E 032°11'0 0.0
2018-May-31 20:57S 28°57' E 032°11'0 0.1
2018-May-31 20:30S 28°57' E 032°11'0 0.1
2018-May-31 19:24S 28°57' E 032°11'0 0.0
2018-May-31 18:51S 28°57' E 032°11'0 0.0
2018-May-31 18:30S 28°57' E 032°11'0 0.0
2018-May-31 18:00S 28°57' E 032°11'0 0.0
2018-May-31 17:30S 28°57' E 032°11'0 0.0
2018-May-31 17:00S 28°57' E 032°11'0 0.1
2018-May-31 16:30S 28°57' E 032°11'0 0.0
2018-May-31 14:15S 28°57' E 032°11'0 0.0
2018-May-31 13:51S 28°57' E 032°11'0 0.1
2018-May-31 13:27S 28°57' E 032°11'0 0.0
2018-May-31 12:57S 28°57' E 032°11'0 0.0
2018-May-31 12:27S 28°57' E 032°11'0 0.0
2018-May-31 12:00S 28°57' E 032°11'0 0.1
2018-May-31 11:27S 28°57' E 032°11'0 0.1
2018-May-31 10:48S 28°57' E 032°11'0 0.0
2018-May-31 10:30S 28°57' E 032°11'0 0.0
2018-May-31 10:00S 28°57' E 032°11'0 0.0
2018-May-31 09:09S 28°57' E 032°11'0 0.1
2018-May-31 08:51S 28°57' E 032°11'0 0.0
2018-May-31 08:24S 28°57' E 032°11'0 0.0
2018-May-31 07:12S 28°57' E 032°11'  

Dump ship's entire track history